CFG3AM LIMC-EDDF
Flight info
| Callsign | CFG3AM |
|---|---|
| Flight time | N/A |
| Altitude | 32000 |
| Route | AOSTA DCT ORSUD DCT MOLUS DCT GILIR DCT PENDU DCT IXILU DCT GIVOR DCT GTQ DCT ERADI/N0440F330 DCT IDARO DCT OBIGA/N0435F320 DCT RAMOB IMCOM1D |
| Aircraft | A320/M-SDE3FGHIJ1LORVWXYZ/S |
Departure
| Time | 2026-02-19 21:52 |
|---|---|
| Airport | Milan Malpensa International Airport (LIMC) |
Arrival
| Time | N/A |
|---|---|
| Airport | Frankfurt Main Airport (EDDF) |
| Time | Latitude | Longitude | Altitude | Speed | Heading |
|---|---|---|---|---|---|
| 2026-02-19 21:29 | 45.62706 | 8.71631 | 753 ft | 0 kts | 349° |
| 2026-02-19 21:43 | 45.62692 | 8.71635 | 751 ft | 3 kts | 349° |
| 2026-02-19 21:43 | 45.62672 | 8.71640 | 753 ft | 3 kts | 351° |
| 2026-02-19 21:44 | 45.62652 | 8.71644 | 748 ft | 3 kts | 358° |
| 2026-02-19 21:44 | 45.62633 | 8.71642 | 750 ft | 3 kts | 21° |
| 2026-02-19 21:44 | 45.62621 | 8.71632 | 750 ft | 1 kts | 60° |
| 2026-02-19 21:44 | 45.62623 | 8.71640 | 749 ft | 3 kts | 65° |
| 2026-02-19 21:45 | 45.62629 | 8.71667 | 751 ft | 3 kts | 78° |
| 2026-02-19 21:45 | 45.62629 | 8.71674 | 751 ft | 0 kts | 79° |
| 2026-02-19 21:47 | 45.62635 | 8.71716 | 753 ft | 8 kts | 79° |
| 2026-02-19 21:47 | 45.62650 | 8.71827 | 753 ft | 14 kts | 79° |
| 2026-02-19 21:47 | 45.62672 | 8.71994 | 751 ft | 20 kts | 79° |
| 2026-02-19 21:47 | 45.62637 | 8.72147 | 749 ft | 17 kts | 161° |
| 2026-02-19 21:48 | 45.62505 | 8.72182 | 749 ft | 22 kts | 169° |
| 2026-02-19 21:48 | 45.62334 | 8.72228 | 752 ft | 25 kts | 168° |
| 2026-02-19 21:48 | 45.62224 | 8.72302 | 749 ft | 15 kts | 105° |
| 2026-02-19 21:48 | 45.62244 | 8.72454 | 744 ft | 17 kts | 79° |
| 2026-02-19 21:49 | 45.62263 | 8.72627 | 749 ft | 18 kts | 81° |
| 2026-02-19 21:49 | 45.62293 | 8.72831 | 751 ft | 25 kts | 79° |
| 2026-02-19 21:49 | 45.62278 | 8.73025 | 751 ft | 19 kts | 152° |
| 2026-02-19 21:49 | 45.62134 | 8.73070 | 750 ft | 24 kts | 168° |
| 2026-02-19 21:50 | 45.61961 | 8.73115 | 753 ft | 25 kts | 170° |
| 2026-02-19 21:50 | 45.61785 | 8.73167 | 752 ft | 23 kts | 159° |
| 2026-02-19 21:50 | 45.61679 | 8.73341 | 751 ft | 25 kts | 124° |
| 2026-02-19 21:50 | 45.61589 | 8.73556 | 749 ft | 25 kts | 107° |
| 2026-02-19 21:51 | 45.61609 | 8.73712 | 743 ft | 12 kts | 38° |
| 2026-02-19 21:51 | 45.61745 | 8.73698 | 744 ft | 39 kts | 349° |
| 2026-02-19 21:51 | 45.62280 | 8.73548 | 747 ft | 113 kts | 349° |
| 2026-02-19 21:51 | 45.63241 | 8.73289 | 812 ft | 160 kts | 347° |
| 2026-02-19 21:52 | 45.64323 | 8.73099 | 1619 ft | 158 kts | 4° |
| 2026-02-19 21:52 | 45.65343 | 8.73762 | 2238 ft | 175 kts | 43° |
| 2026-02-19 21:52 | 45.66234 | 8.75064 | 2779 ft | 190 kts | 41° |
| 2026-02-19 21:52 | 45.67232 | 8.76387 | 3377 ft | 201 kts | 39° |
| 2026-02-19 21:53 | 45.68288 | 8.77752 | 4043 ft | 209 kts | 39° |
| 2026-02-19 21:53 | 45.69362 | 8.79159 | 4865 ft | 208 kts | 40° |
| 2026-02-19 21:53 | 45.70396 | 8.80577 | 5727 ft | 205 kts | 40° |
| 2026-02-19 21:53 | 45.71454 | 8.82008 | 6390 ft | 213 kts | 40° |
| 2026-02-19 21:54 | 45.72382 | 8.83727 | 6925 ft | 234 kts | 60° |
| 2026-02-19 21:54 | 45.72842 | 8.86060 | 7677 ft | 249 kts | 83° |
| 2026-02-19 21:54 | 45.72614 | 8.88510 | 8551 ft | 258 kts | 110° |
| 2026-02-19 21:54 | 45.71594 | 8.90639 | 9469 ft | 265 kts | 140° |
| 2026-02-19 21:55 | 45.69955 | 8.91823 | 10311 ft | 269 kts | 171° |
| 2026-02-19 21:55 | 45.66514 | 8.90390 | 11906 ft | 266 kts | 231° |
| 2026-02-19 21:55 | 45.65565 | 8.88188 | 12716 ft | 261 kts | 257° |
| 2026-02-19 21:56 | 45.65337 | 8.85578 | 13178 ft | 270 kts | 282° |
| 2026-02-19 21:56 | 45.65631 | 8.82944 | 14059 ft | 269 kts | 283° |
| 2026-02-19 21:56 | 45.65926 | 8.80222 | 14516 ft | 288 kts | 283° |
| 2026-02-19 21:56 | 45.66234 | 8.77278 | 14755 ft | 311 kts | 282° |
| 2026-02-19 21:57 | 45.66559 | 8.74100 | 14952 ft | 335 kts | 282° |
| 2026-02-19 21:57 | 45.66894 | 8.70729 | 15407 ft | 347 kts | 281° |
| 2026-02-19 21:57 | 45.67229 | 8.67280 | 16063 ft | 354 kts | 281° |
| 2026-02-19 21:57 | 45.67565 | 8.63777 | 16755 ft | 359 kts | 281° |
| 2026-02-19 21:58 | 45.67911 | 8.60214 | 17431 ft | 365 kts | 280° |
| 2026-02-19 21:58 | 45.68266 | 8.56596 | 18093 ft | 370 kts | 280° |
| 2026-02-19 21:58 | 45.68628 | 8.52926 | 18708 ft | 374 kts | 279° |
| 2026-02-19 21:58 | 45.68992 | 8.49227 | 19353 ft | 377 kts | 279° |
| 2026-02-19 21:59 | 45.69358 | 8.45498 | 20008 ft | 381 kts | 279° |
| 2026-02-19 21:59 | 45.69723 | 8.41739 | 20665 ft | 384 kts | 279° |
| 2026-02-19 21:59 | 45.70090 | 8.37944 | 21333 ft | 386 kts | 279° |
| 2026-02-19 21:59 | 45.70459 | 8.34124 | 21979 ft | 390 kts | 278° |
| 2026-02-19 22:00 | 45.70830 | 8.30268 | 22617 ft | 392 kts | 278° |
| 2026-02-19 22:00 | 45.71201 | 8.26388 | 23224 ft | 395 kts | 278° |
| 2026-02-19 22:00 | 45.71577 | 8.22481 | 23703 ft | 399 kts | 277° |
| 2026-02-19 22:00 | 45.71956 | 8.18533 | 24172 ft | 402 kts | 277° |
| 2026-02-19 22:01 | 45.72334 | 8.14567 | 24729 ft | 402 kts | 277° |
| 2026-02-19 22:01 | 45.72710 | 8.10595 | 25213 ft | 404 kts | 278° |
| 2026-02-19 22:01 | 45.73084 | 8.06602 | 25703 ft | 405 kts | 278° |
| 2026-02-19 22:01 | 45.73458 | 8.02591 | 26161 ft | 407 kts | 278° |
| 2026-02-19 22:02 | 45.73836 | 7.98577 | 26655 ft | 408 kts | 278° |
| 2026-02-19 22:02 | 45.74215 | 7.94552 | 27134 ft | 409 kts | 279° |
| 2026-02-19 22:02 | 45.74594 | 7.90504 | 27625 ft | 410 kts | 279° |
| 2026-02-19 22:02 | 45.74964 | 7.86503 | 28074 ft | 413 kts | 278° |
| 2026-02-19 22:03 | 45.75346 | 7.82347 | 28362 ft | 418 kts | 280° |
| 2026-02-19 22:03 | 45.75723 | 7.78257 | 28693 ft | 422 kts | 280° |
| 2026-02-19 22:03 | 45.76106 | 7.74085 | 29076 ft | 424 kts | 280° |
| 2026-02-19 22:03 | 45.76491 | 7.69885 | 29425 ft | 426 kts | 280° |
| 2026-02-19 22:04 | 45.76875 | 7.65673 | 29780 ft | 428 kts | 280° |
| 2026-02-19 22:04 | 45.77258 | 7.61432 | 30017 ft | 430 kts | 280° |
| 2026-02-19 22:04 | 45.77640 | 7.57173 | 30297 ft | 432 kts | 280° |
| 2026-02-19 22:04 | 45.78021 | 7.52897 | 30574 ft | 434 kts | 280° |
| 2026-02-19 22:05 | 45.78400 | 7.48600 | 30804 ft | 436 kts | 280° |
| 2026-02-19 22:05 | 45.78795 | 7.44301 | 31039 ft | 436 kts | 283° |
| 2026-02-19 22:05 | 45.79550 | 7.40125 | 31364 ft | 431 kts | 292° |
| 2026-02-19 22:05 | 45.80793 | 7.36235 | 31668 ft | 428 kts | 302° |
| 2026-02-19 22:06 | 45.82467 | 7.32735 | 31778 ft | 421 kts | 311° |
| 2026-02-19 22:06 | 45.84482 | 7.29781 | 31807 ft | 411 kts | 321° |
| 2026-02-19 22:06 | 45.89082 | 7.25005 | 31824 ft | 407 kts | 325° |
| 2026-02-19 22:07 | 45.93704 | 7.20304 | 31821 ft | 407 kts | 325° |
| 2026-02-19 22:07 | 45.98296 | 7.15609 | 31845 ft | 408 kts | 324° |
| 2026-02-19 22:08 | 46.02906 | 7.10881 | 31854 ft | 405 kts | 325° |
| 2026-02-19 22:08 | 46.07476 | 7.06196 | 31859 ft | 403 kts | 325° |
| 2026-02-19 22:09 | 46.11273 | 7.02289 | 31857 ft | 403 kts | 325° |
| 2026-02-19 22:09 | 46.15825 | 6.97600 | 31858 ft | 403 kts | 324° |
| 2026-02-19 22:10 | 46.20391 | 6.92892 | 31845 ft | 404 kts | 325° |
| 2026-02-19 22:10 | 46.24959 | 6.88167 | 31840 ft | 404 kts | 324° |
| 2026-02-19 22:11 | 46.29520 | 6.83433 | 31844 ft | 404 kts | 324° |
| 2026-02-19 22:11 | 46.34083 | 6.78691 | 31855 ft | 402 kts | 325° |
| 2026-02-19 22:12 | 46.38614 | 6.73978 | 31864 ft | 401 kts | 325° |
| 2026-02-19 22:12 | 46.43143 | 6.69260 | 31857 ft | 400 kts | 326° |
| 2026-02-19 22:13 | 46.48015 | 6.65398 | 31845 ft | 399 kts | 334° |
| 2026-02-19 22:13 | 46.53015 | 6.61886 | 31836 ft | 399 kts | 334° |
| 2026-02-19 22:14 | 46.58008 | 6.58368 | 31830 ft | 399 kts | 334° |
| 2026-02-19 22:14 | 46.63004 | 6.54848 | 31823 ft | 399 kts | 334° |
| 2026-02-19 22:15 | 46.68000 | 6.51310 | 31822 ft | 399 kts | 334° |
| 2026-02-19 22:15 | 46.72982 | 6.47769 | 31821 ft | 397 kts | 334° |
| 2026-02-19 22:16 | 46.77931 | 6.44261 | 31850 ft | 395 kts | 335° |
| 2026-02-19 22:16 | 46.80499 | 6.42876 | 31848 ft | 394 kts | 347° |
| 2026-02-19 22:16 | 46.83233 | 6.42528 | 31840 ft | 395 kts | 357° |
| 2026-02-19 22:17 | 46.88735 | 6.42404 | 31824 ft | 396 kts | 357° |
| 2026-02-19 22:17 | 46.94238 | 6.42329 | 31816 ft | 396 kts | 357° |
| 2026-02-19 22:18 | 46.99745 | 6.42240 | 31815 ft | 395 kts | 357° |
| 2026-02-19 22:18 | 47.05213 | 6.42145 | 31812 ft | 396 kts | 357° |
| 2026-02-19 22:19 | 47.10723 | 6.42042 | 31825 ft | 396 kts | 357° |
| 2026-02-19 22:19 | 47.16233 | 6.41945 | 31820 ft | 397 kts | 357° |
| 2026-02-19 22:20 | 47.21885 | 6.41848 | 31852 ft | 416 kts | 357° |
| 2026-02-19 22:20 | 47.27770 | 6.41737 | 31844 ft | 429 kts | 357° |
| 2026-02-19 22:21 | 47.33761 | 6.41618 | 31840 ft | 432 kts | 357° |
| 2026-02-19 22:21 | 47.39778 | 6.41519 | 31838 ft | 432 kts | 358° |
| 2026-02-19 22:22 | 47.45809 | 6.41423 | 31834 ft | 434 kts | 358° |
| 2026-02-19 22:22 | 47.51856 | 6.41307 | 31830 ft | 435 kts | 358° |
| 2026-02-19 22:23 | 47.57903 | 6.41192 | 31824 ft | 434 kts | 358° |
| 2026-02-19 22:23 | 47.63939 | 6.41077 | 31823 ft | 435 kts | 358° |
| 2026-02-19 22:24 | 47.69959 | 6.40958 | 31815 ft | 435 kts | 358° |
| 2026-02-19 22:24 | 47.76062 | 6.40846 | 31810 ft | 436 kts | 358° |
| 2026-02-19 22:25 | 47.82125 | 6.40727 | 31823 ft | 436 kts | 358° |
| 2026-02-19 22:25 | 47.88164 | 6.40613 | 31823 ft | 437 kts | 358° |
| 2026-02-19 22:26 | 47.94241 | 6.40503 | 31832 ft | 437 kts | 358° |
| 2026-02-19 22:26 | 48.00326 | 6.40391 | 31822 ft | 437 kts | 358° |
| 2026-02-19 22:27 | 48.06415 | 6.40284 | 31837 ft | 438 kts | 358° |
| 2026-02-19 22:27 | 48.12509 | 6.40168 | 31811 ft | 438 kts | 358° |
| 2026-02-19 22:28 | 48.18577 | 6.40056 | 31868 ft | 435 kts | 358° |
| 2026-02-19 22:28 | 48.24619 | 6.39939 | 31882 ft | 433 kts | 358° |
| 2026-02-19 22:29 | 48.30636 | 6.39823 | 31878 ft | 433 kts | 358° |
| 2026-02-19 22:29 | 48.36652 | 6.39889 | 31864 ft | 435 kts | 6° |
| 2026-02-19 22:30 | 48.42544 | 6.42097 | 31864 ft | 437 kts | 12° |
| 2026-02-19 22:30 | 48.48408 | 6.44492 | 31864 ft | 437 kts | 13° |
| 2026-02-19 22:31 | 48.54284 | 6.46895 | 31872 ft | 438 kts | 13° |
| 2026-02-19 22:31 | 48.60169 | 6.49292 | 31873 ft | 438 kts | 13° |
| 2026-02-19 22:32 | 48.66062 | 6.51703 | 31875 ft | 439 kts | 13° |
| 2026-02-19 22:32 | 48.71960 | 6.54126 | 31895 ft | 439 kts | 13° |
| 2026-02-19 22:33 | 48.77879 | 6.56562 | 31867 ft | 442 kts | 13° |
| 2026-02-19 22:33 | 48.83822 | 6.59009 | 31868 ft | 444 kts | 13° |
| 2026-02-19 22:34 | 48.89745 | 6.61460 | 31848 ft | 445 kts | 14° |
| 2026-02-19 22:34 | 48.95720 | 6.63936 | 31886 ft | 446 kts | 14° |
| 2026-02-19 22:35 | 49.01707 | 6.66418 | 31890 ft | 446 kts | 14° |
| 2026-02-19 22:35 | 49.07686 | 6.68916 | 31893 ft | 446 kts | 14° |
| 2026-02-19 22:36 | 49.13673 | 6.71419 | 31892 ft | 446 kts | 14° |
| 2026-02-19 22:36 | 49.19657 | 6.73922 | 31891 ft | 446 kts | 14° |
| 2026-02-19 22:37 | 49.25650 | 6.76430 | 31874 ft | 446 kts | 14° |
| 2026-02-19 22:37 | 49.31646 | 6.78942 | 31875 ft | 446 kts | 14° |
| 2026-02-19 22:38 | 49.37633 | 6.81473 | 31868 ft | 446 kts | 14° |
| 2026-02-19 22:38 | 49.43618 | 6.84014 | 31870 ft | 446 kts | 14° |
| 2026-02-19 22:39 | 49.49605 | 6.86533 | 31642 ft | 447 kts | 14° |
| 2026-02-19 22:39 | 49.52614 | 6.87768 | 30794 ft | 448 kts | 14° |
| 2026-02-19 22:39 | 49.55638 | 6.88957 | 29967 ft | 450 kts | 14° |
| 2026-02-19 22:40 | 49.58687 | 6.90085 | 28991 ft | 453 kts | 14° |
| 2026-02-19 22:40 | 49.61770 | 6.91204 | 28049 ft | 456 kts | 14° |
| 2026-02-19 22:40 | 49.64869 | 6.92322 | 27141 ft | 459 kts | 14° |
| 2026-02-19 22:40 | 49.67982 | 6.93437 | 26253 ft | 462 kts | 14° |
| 2026-02-19 22:41 | 49.71125 | 6.94553 | 25413 ft | 465 kts | 14° |
| 2026-02-19 22:41 | 49.74280 | 6.95671 | 24588 ft | 463 kts | 14° |
| 2026-02-19 22:41 | 49.77383 | 6.96757 | 23770 ft | 451 kts | 14° |
| 2026-02-19 22:41 | 49.80412 | 6.97819 | 22904 ft | 442 kts | 14° |
| 2026-02-19 22:42 | 49.83388 | 6.98866 | 21987 ft | 435 kts | 14° |
| 2026-02-19 22:42 | 49.86324 | 6.99913 | 21105 ft | 430 kts | 14° |
| 2026-02-19 22:42 | 49.89183 | 7.00939 | 20249 ft | 425 kts | 14° |
| 2026-02-19 22:42 | 49.92079 | 7.01994 | 19411 ft | 420 kts | 15° |
| 2026-02-19 22:43 | 49.94740 | 7.03625 | 18586 ft | 415 kts | 31° |
| 2026-02-19 22:43 | 49.96963 | 7.06495 | 17715 ft | 411 kts | 49° |
| 2026-02-19 22:43 | 49.98450 | 7.10247 | 16809 ft | 409 kts | 68° |
| 2026-02-19 22:43 | 49.99083 | 7.14533 | 15933 ft | 407 kts | 86° |
| 2026-02-19 22:44 | 49.98812 | 7.18886 | 15095 ft | 407 kts | 102° |